Cowlington, Oklahoma
Current Conditions -  °F | °C
As of 2:35 PM on Thursday 23 Oct 2014 (Local Time) from KGZL Reporting Station
Broken Clouds Broken Clouds  
Wind Chill: 17°   Ceiling: 5000
Heat Index: 17°   Visibility: 10mi
Dew Point: 12°   Wind: 5mph
Humidity: 72%   Direction: 100°E
Pressure: 30.13"   Gusts: NA
Location:  35.2597°N, 94.8795°W
Report Text: KGZL 231935Z AUTO 10004KT 10SM BKN050 BKN070 17/12 A3013 RMK AO2
Loading
Personal Weather Stations






























Interactive Weather Map
Tropical Storm Tracking
New forecast layout! Learn more

10-Day Weather Forecast

Advertisements
Track Severe Weather on mobile